MET'MAP v2.0
soon released !

Expected late october,
this new version will be
more efficient, smarter,
and hosted on a brand new
server x3 powerfull...
...and still free !


Not compatible ?
Try the mobile version !

LOG IN : | Subscribe | Disclaimer | Who is Orbifly ? |
ICAO code :

TAF - DAAY Mecheria Airport - 30 May 2020 18:03 UTC - Data Source NOAA   


- Airport Elevation : 3855 ft
- No reported NOTAMs.


DAAY - Mecheria Airport

Latest METAR recorded : 2015/08/11 08:00 DAAY 110800Z ///08KT 7000 SCT030 BKN100 25/21 Q1024
TAF TAF DAAY
Valid from the 30 at 15:00 until the 31 at 00:00 UTC


301400Z 3015/3024 01010KT 7000 SCT030
PROB40
TEMPO 3015/3021 5000 TSRA FEW026CB BKN033

Source NOAA


MET'MAP, your aeronautical weather chart ! - Copyright ORBIFLY December 2007

Programming & Development : Alexandra Zaïnal
Co-Developer : Marc-Olivier Méhu
Technical & hardware support : Manuel Goepfert
Concept & Financing : Baudouin d'Aumeries